createdAt,value
2019-04-05T00:00:35.070Z,11.97
2019-04-05T00:03:03.743Z,11.60
2019-04-05T00:05:32.153Z,11.80
2019-04-05T00:08:00.563Z,11.30
2019-04-05T00:10:29.073Z,11.20
2019-04-05T00:12:57.526Z,11.80
2019-04-05T00:15:26.011Z,11.93
2019-04-05T00:17:54.446Z,11.10
2019-04-05T00:20:22.914Z,11.27
2019-04-05T00:22:51.394Z,11.10
2019-04-05T00:25:19.993Z,10.93
2019-04-05T00:27:48.404Z,10.70
2019-04-05T00:30:17.060Z,10.80
2019-04-05T00:32:45.513Z,10.50
2019-04-05T00:35:14.019Z,10.77
2019-04-05T00:37:42.473Z,10.30
2019-04-05T00:40:11.521Z,10.90
2019-04-05T00:42:39.934Z,11.00
2019-04-05T00:45:08.794Z,10.33
2019-04-05T00:47:37.294Z,10.63
2019-04-05T00:50:07.562Z,10.30
2019-04-05T00:52:35.979Z,10.77
2019-04-05T00:55:06.317Z,10.77
2019-04-05T00:57:34.727Z,10.47
2019-04-05T01:00:03.284Z,9.83
2019-04-05T01:02:31.943Z,10.63
2019-04-05T01:05:00.362Z,10.60
2019-04-05T01:07:28.782Z,11.07
2019-04-05T01:09:57.719Z,10.47
2019-04-05T01:12:26.304Z,10.80
2019-04-05T01:14:55.271Z,11.90
2019-04-05T01:17:25.162Z,12.10
2019-04-05T01:19:57.026Z,10.87
2019-04-05T01:22:27.832Z,12.73
2019-04-05T01:24:57.583Z,12.97
2019-04-05T01:27:26.947Z,13.03
2019-04-05T01:29:55.556Z,12.87
2019-04-05T01:32:24.114Z,13.83
2019-04-05T01:34:52.557Z,13.00
2019-04-05T01:37:21.914Z,13.10
2019-04-05T01:39:50.353Z,13.63
2019-04-05T01:42:18.872Z,14.53
2019-04-05T01:44:47.624Z,13.70
2019-04-05T01:47:16.116Z,14.57
2019-04-05T01:49:44.576Z,14.20
2019-04-05T01:52:13.284Z,15.13
2019-04-05T01:54:41.705Z,15.10
2019-04-05T01:57:10.323Z,13.77
2019-04-05T01:59:38.898Z,15.70
2019-04-05T02:02:07.331Z,15.30
2019-04-05T02:04:35.813Z,14.90
2019-04-05T02:07:04.391Z,14.67
2019-04-05T02:09:32.966Z,13.60
2019-04-05T02:12:01.378Z,15.03
2019-04-05T02:17:03.714Z,15.70
2019-04-05T02:19:32.129Z,16.77
2019-04-05T02:22:00.560Z,15.07
2019-04-05T02:24:29.248Z,14.33
2019-04-05T02:26:57.651Z,14.70
2019-04-05T02:29:26.073Z,14.43
2019-04-05T02:31:54.718Z,14.70
2019-04-05T02:34:23.196Z,14.50
2019-04-05T02:36:51.757Z,15.00
2019-04-05T02:39:20.406Z,14.03
2019-04-05T02:41:49.622Z,14.10
2019-04-05T02:44:18.887Z,14.33
2019-04-05T02:46:47.955Z,14.37
2019-04-05T02:49:16.962Z,14.90
2019-04-05T02:51:47.188Z,13.57
2019-04-05T02:54:16.376Z,13.50
2019-04-05T02:56:45.270Z,14.43
2019-04-05T02:59:15.023Z,14.30
2019-04-05T03:01:44.342Z,14.37
2019-04-05T03:04:13.189Z,13.67
2019-04-05T03:06:42.120Z,13.70
2019-04-05T03:09:11.359Z,13.70
2019-04-05T03:11:40.677Z,13.57
2019-04-05T03:14:10.334Z,14.20
2019-04-05T03:16:42.261Z,14.43
2019-04-05T03:19:13.843Z,13.60
2019-04-05T03:21:45.639Z,13.37
2019-04-05T03:24:17.140Z,14.33
2019-04-05T03:26:51.646Z,15.07
2019-04-05T03:29:20.194Z,14.17
2019-04-05T03:31:48.753Z,14.60
2019-04-05T03:34:17.756Z,15.33
2019-04-05T03:36:46.380Z,14.30
2019-04-05T03:39:15.225Z,15.13
2019-04-05T03:41:43.862Z,14.23
2019-04-05T03:44:12.370Z,14.27
2019-04-05T03:46:55.657Z,14.40
2019-04-05T03:49:11.598Z,15.47
2019-04-05T03:51:40.111Z,14.73
2019-04-05T03:54:08.597Z,15.40
2019-04-05T03:56:38.474Z,14.80
2019-04-05T03:59:07.397Z,15.17
2019-04-05T04:01:35.994Z,14.03
2019-04-05T04:04:05.168Z,15.37
2019-04-05T04:06:33.647Z,15.50
2019-04-05T04:09:02.148Z,14.00
2019-04-05T04:11:30.616Z,14.40
2019-04-05T04:14:00.263Z,14.77
2019-04-05T04:16:29.439Z,14.37
2019-04-05T04:18:58.522Z,15.23
2019-04-05T04:21:36.072Z,14.50
2019-04-05T04:24:09.818Z,14.53
2019-04-05T04:26:39.131Z,14.67
2019-04-05T04:29:08.193Z,14.70
2019-04-05T04:31:36.752Z,14.97
2019-04-05T04:34:06.361Z,14.03
2019-04-05T04:36:34.894Z,14.97
2019-04-05T04:39:04.844Z,15.10
2019-04-05T04:41:33.335Z,14.77
2019-04-05T04:44:01.751Z,14.83
2019-04-05T04:46:30.338Z,14.53
2019-04-05T04:48:58.890Z,15.40
2019-04-05T04:51:27.842Z,15.20
2019-04-05T04:53:57.056Z,15.93
2019-04-05T04:56:25.523Z,15.97
2019-04-05T04:58:54.056Z,16.10
2019-04-05T05:01:22.686Z,16.33
2019-04-05T05:03:51.313Z,16.13
2019-04-05T05:06:19.832Z,16.27
2019-04-05T05:08:48.684Z,16.20
2019-04-05T05:11:18.803Z,16.50
2019-04-05T05:13:47.393Z,15.20
2019-04-05T05:16:16.581Z,15.73
2019-04-05T05:18:45.173Z,15.23
2019-04-05T05:21:13.730Z,16.13
2019-04-05T05:23:42.233Z,17.27
2019-04-05T05:26:10.693Z,16.03
2019-04-05T05:28:39.170Z,15.43
2019-04-05T05:31:08.009Z,16.27
2019-04-05T05:33:36.429Z,15.87
2019-04-05T05:36:05.129Z,15.93
2019-04-05T05:38:33.653Z,16.53
2019-04-05T05:41:02.262Z,17.20
2019-04-05T05:43:30.750Z,16.57
2019-04-05T05:45:59.455Z,16.47
2019-04-05T05:48:30.678Z,15.77
2019-04-05T05:50:58.158Z,15.60
2019-04-05T05:53:27.305Z,15.03
2019-04-05T05:55:55.731Z,15.83
2019-04-05T05:58:25.811Z,16.13
2019-04-05T06:00:54.458Z,15.33
2019-04-05T06:03:22.876Z,16.33
2019-04-05T06:06:03.697Z,16.00
2019-04-05T06:08:21.814Z,15.27
2019-04-05T06:10:50.233Z,15.93
2019-04-05T06:13:18.642Z,15.80
2019-04-05T06:15:47.101Z,15.10
2019-04-05T06:18:15.538Z,15.47
2019-04-05T06:20:43.980Z,15.03
2019-04-05T06:23:12.822Z,15.13
2019-04-05T06:25:41.278Z,15.57
2019-04-05T06:28:09.682Z,14.70
2019-04-05T06:30:38.748Z,15.23
2019-04-05T06:33:07.153Z,14.90
2019-04-05T06:35:35.608Z,14.60
2019-04-05T06:38:04.180Z,15.07
2019-04-05T06:40:40.622Z,14.67
2019-04-05T06:43:02.799Z,14.20
2019-04-05T06:45:31.576Z,15.70
2019-04-05T06:48:00.044Z,15.03
2019-04-05T06:50:28.472Z,14.93
2019-04-05T06:52:57.108Z,15.50
2019-04-05T06:55:25.608Z,14.27
2019-04-05T06:57:54.017Z,13.80
2019-04-05T07:00:29.259Z,14.70
2019-04-05T07:02:58.790Z,14.87
2019-04-05T07:05:30.154Z,13.83
2019-04-05T07:07:58.640Z,14.80
2019-04-05T07:10:27.078Z,14.33
2019-04-05T07:12:55.575Z,13.87
2019-04-05T07:15:24.128Z,14.17
2019-04-05T07:17:52.541Z,14.30
2019-04-05T07:20:23.621Z,14.07
2019-04-05T07:22:51.505Z,13.20
2019-04-05T07:25:19.931Z,14.07
2019-04-05T07:27:48.349Z,13.97
2019-04-05T07:30:17.276Z,13.40
2019-04-05T07:32:45.710Z,14.33
2019-04-05T07:35:14.125Z,14.70
2019-04-05T07:37:42.979Z,13.47
2019-04-05T07:40:11.634Z,14.20
2019-04-05T07:42:40.055Z,13.70
2019-04-05T07:45:08.862Z,14.13
2019-04-05T07:47:37.274Z,15.13
2019-04-05T07:50:09.867Z,13.30
2019-04-05T07:52:38.544Z,12.97
2019-04-05T07:55:08.705Z,14.70
2019-04-05T07:57:38.029Z,14.27
2019-04-05T08:00:12.706Z,15.33
2019-04-05T08:02:41.137Z,14.50
2019-04-05T08:05:09.597Z,15.20
2019-04-05T08:07:42.211Z,14.63
2019-04-05T08:10:10.992Z,15.37
2019-04-05T08:12:39.566Z,15.27
2019-04-05T08:15:08.492Z,14.77
2019-04-05T08:17:36.902Z,15.73
2019-04-05T08:20:07.968Z,14.70
2019-04-05T08:22:36.810Z,14.43
2019-04-05T08:25:05.509Z,14.80
2019-04-05T08:27:33.913Z,14.87
2019-04-05T08:30:02.778Z,13.97
2019-04-05T08:32:31.187Z,13.60
2019-04-05T08:34:59.599Z,14.13
2019-04-05T08:37:29.878Z,14.00
2019-04-05T08:39:58.458Z,13.50
2019-04-05T08:42:26.920Z,13.87
2019-04-05T08:44:55.526Z,14.60
2019-04-05T08:47:23.990Z,13.77
2019-04-05T08:49:52.422Z,14.53
2019-04-05T08:52:20.866Z,15.10
2019-04-05T08:54:49.279Z,14.50
2019-04-05T08:57:17.705Z,15.57
2019-04-05T08:59:46.421Z,14.57
2019-04-05T09:02:14.842Z,15.00
2019-04-05T09:04:43.274Z,15.90
2019-04-05T09:07:11.691Z,16.57
2019-04-05T09:09:40.121Z,15.50
2019-04-05T09:12:08.530Z,16.47
2019-04-05T09:14:37.099Z,15.77
2019-04-05T09:17:05.550Z,16.40
2019-04-05T09:19:34.060Z,16.30
2019-04-05T09:22:02.675Z,16.20
2019-04-05T09:24:31.153Z,16.00
2019-04-05T09:26:59.763Z,15.30
2019-04-05T09:29:28.383Z,16.80
2019-04-05T09:31:56.905Z,15.93
2019-04-05T09:34:25.418Z,15.70
2019-04-05T09:36:54.247Z,16.33
2019-04-05T09:39:22.749Z,16.87
2019-04-05T09:41:51.184Z,15.30
2019-04-05T09:44:23.877Z,15.80
2019-04-05T09:46:52.683Z,15.43
2019-04-05T09:49:21.806Z,16.42
2019-04-05T09:51:56.490Z,16.90
2019-04-05T09:54:24.981Z,16.00
2019-04-05T09:56:53.432Z,17.00
2019-04-05T09:59:22.029Z,17.20
2019-04-05T10:01:50.442Z,18.07
2019-04-05T10:04:18.902Z,16.73
2019-04-05T10:06:47.370Z,17.00
2019-04-05T10:09:15.782Z,16.65
2019-04-05T10:11:44.210Z,18.20
2019-04-05T10:14:12.778Z,17.50
2019-04-05T10:16:41.203Z,17.15
2019-04-05T10:19:09.614Z,16.15
2019-04-05T10:21:38.286Z,16.62
2019-04-05T10:24:06.857Z,16.85
2019-04-05T10:26:35.467Z,16.32
2019-04-05T10:29:03.998Z,16.15
2019-04-05T10:31:32.410Z,15.68
2019-04-05T10:34:00.838Z,15.78
2019-04-05T10:36:29.285Z,15.45
2019-04-05T10:38:57.715Z,16.95
2019-04-05T10:41:26.136Z,16.20
2019-04-05T10:43:54.630Z,17.95
2019-04-05T10:46:23.182Z,18.73
2019-04-05T10:48:51.625Z,17.10
2019-04-05T10:51:20.250Z,16.30
2019-04-05T10:53:48.671Z,17.17
2019-04-05T10:56:17.114Z,17.40
2019-04-05T10:58:45.722Z,16.45
2019-04-05T11:01:14.227Z,18.02
2019-04-05T11:03:42.655Z,16.57
2019-04-05T11:06:11.140Z,16.77
2019-04-05T11:08:39.628Z,17.57
2019-04-05T11:11:08.046Z,17.33
2019-04-05T11:13:36.636Z,17.70
2019-04-05T11:16:05.212Z,17.42
2019-04-05T11:18:33.684Z,16.83
2019-04-05T11:21:02.220Z,17.25
2019-04-05T11:23:30.697Z,16.25
2019-04-05T11:25:59.114Z,15.80
2019-04-05T11:28:27.723Z,16.15
2019-04-05T11:30:56.142Z,17.30
2019-04-05T11:33:24.598Z,17.55
2019-04-05T11:35:53.106Z,16.55
2019-04-05T11:38:24.245Z,15.48
2019-04-05T11:40:52.767Z,15.85
2019-04-05T11:43:26.143Z,16.70
2019-04-05T11:45:53.494Z,16.30
2019-04-05T11:48:22.058Z,15.55
2019-04-05T11:50:50.517Z,15.30
2019-04-05T11:53:21.894Z,17.77
2019-04-05T11:55:49.124Z,16.90
2019-04-05T11:58:17.790Z,17.00
2019-04-05T12:00:47.884Z,15.95
2019-04-05T12:03:17.987Z,14.58
2019-04-05T12:05:46.650Z,15.38
2019-04-05T12:08:15.148Z,15.25
2019-04-05T12:10:43.579Z,15.18
2019-04-05T12:13:12.467Z,14.30
2019-04-05T12:15:40.952Z,16.02
2019-04-05T12:18:09.423Z,14.65
2019-04-05T12:20:49.178Z,16.42
2019-04-05T12:23:08.341Z,16.37
2019-04-05T12:25:36.841Z,16.45
2019-04-05T12:28:07.730Z,15.13
2019-04-05T12:30:35.849Z,15.00
2019-04-05T12:33:13.581Z,15.28
2019-04-05T12:35:37.431Z,15.18
2019-04-05T12:38:06.998Z,14.05
2019-04-05T12:40:34.979Z,13.93
2019-04-05T12:43:03.623Z,15.60
2019-04-05T12:45:32.035Z,15.72
2019-04-05T12:48:00.609Z,15.43
2019-04-05T12:50:29.121Z,16.37
2019-04-05T12:52:57.575Z,15.25
2019-04-05T12:55:26.032Z,15.85
2019-04-05T12:57:56.195Z,14.50
2019-04-05T13:00:26.029Z,15.10
2019-04-05T13:02:57.098Z,15.35
2019-04-05T13:05:25.475Z,15.63
2019-04-05T13:07:53.903Z,16.00
2019-04-05T13:10:25.036Z,15.88
2019-04-05T13:12:56.799Z,16.27
2019-04-05T13:15:22.993Z,16.27
2019-04-05T13:17:51.452Z,16.02
2019-04-05T13:20:20.083Z,14.55
2019-04-05T13:22:48.656Z,15.60
2019-04-05T13:25:17.208Z,15.55
2019-04-05T13:27:45.764Z,14.85
2019-04-05T13:30:18.323Z,14.63
2019-04-05T13:32:44.883Z,14.50
2019-04-05T13:35:16.553Z,16.00
2019-04-05T13:37:43.749Z,15.80
2019-04-05T13:40:12.313Z,17.57
2019-04-05T13:42:40.924Z,15.90
2019-04-05T13:45:09.544Z,17.65
2019-04-05T13:47:39.031Z,16.75
2019-04-05T13:50:10.920Z,16.65
2019-04-05T13:52:41.426Z,16.25
2019-04-05T13:55:10.779Z,16.12
2019-04-05T13:57:40.950Z,14.13
2019-04-05T14:00:10.092Z,15.30
2019-04-05T14:02:38.697Z,16.48
2019-04-05T14:05:07.575Z,16.30
2019-04-05T14:07:36.003Z,16.30
2019-04-05T14:10:10.736Z,16.05
2019-04-05T14:12:37.655Z,17.35
2019-04-05T14:15:10.715Z,17.42
2019-04-05T14:17:38.651Z,17.67
2019-04-05T14:20:09.077Z,17.85
2019-04-05T14:22:37.865Z,16.77
2019-04-05T14:25:08.289Z,18.95
2019-04-05T14:27:36.894Z,16.50
2019-04-05T14:30:06.864Z,16.45
2019-04-05T14:32:35.412Z,17.15
2019-04-05T14:35:07.809Z,15.55
2019-04-05T14:37:35.481Z,18.15
2019-04-05T14:40:06.710Z,16.73
2019-04-05T14:42:35.358Z,17.75
2019-04-05T14:45:05.814Z,16.02
2019-04-05T14:47:34.304Z,17.85
2019-04-05T14:50:02.949Z,17.67
2019-04-05T14:52:31.848Z,17.40
2019-04-05T14:55:00.662Z,16.85
2019-04-05T14:57:29.350Z,17.92
2019-04-05T14:59:57.817Z,15.48
2019-04-05T15:02:26.301Z,15.88
2019-04-05T15:04:54.829Z,16.82
2019-04-05T15:07:23.325Z,16.20
2019-04-05T15:09:54.795Z,16.70
2019-04-05T15:12:22.098Z,17.57
2019-04-05T15:14:50.522Z,16.52
2019-04-05T15:17:18.992Z,15.65
2019-04-05T15:19:47.624Z,16.40
2019-04-05T15:22:16.047Z,16.52
2019-04-05T15:24:44.583Z,17.27
2019-04-05T15:27:15.022Z,16.60
2019-04-05T15:29:43.476Z,17.07
2019-04-05T15:32:11.915Z,16.52
2019-04-05T15:34:40.422Z,16.90
2019-04-05T15:37:08.863Z,16.67
2019-04-05T15:39:37.287Z,17.23
2019-04-05T15:42:06.044Z,17.42
2019-04-05T15:44:34.512Z,16.55
2019-04-05T15:47:02.923Z,15.58
2019-04-05T15:49:31.358Z,17.37
2019-04-05T15:51:59.790Z,16.60
2019-04-05T15:54:29.219Z,18.23
2019-04-05T15:56:58.050Z,17.32
2019-04-05T15:59:26.547Z,17.52
2019-04-05T16:01:54.984Z,17.48
2019-04-05T16:04:23.740Z,17.62
2019-04-05T16:06:52.200Z,17.80
2019-04-05T16:09:20.891Z,18.25
2019-04-05T16:11:49.448Z,18.15
2019-04-05T16:14:17.871Z,18.37
2019-04-05T16:16:46.332Z,18.15
2019-04-05T16:19:15.002Z,17.73
2019-04-05T16:21:43.423Z,17.02
2019-04-05T16:24:11.900Z,18.15
2019-04-05T16:26:40.585Z,17.48
2019-04-05T16:29:09.010Z,17.60
2019-04-05T16:31:37.424Z,16.85
2019-04-05T16:34:06.077Z,17.35
2019-04-05T16:36:34.525Z,17.85
2019-04-05T16:39:04.585Z,17.55
2019-04-05T16:41:33.099Z,18.70
2019-04-05T16:44:01.514Z,18.52
2019-04-05T16:46:29.926Z,18.82
2019-04-05T16:48:58.396Z,18.27
2019-04-05T16:51:26.890Z,17.32
2019-04-05T16:53:59.170Z,18.27
2019-04-05T16:56:28.126Z,19.75
2019-04-05T16:58:56.818Z,17.52
2019-04-05T17:01:27.358Z,18.73
2019-04-05T17:03:55.694Z,20.77
2019-04-05T17:06:24.181Z,19.02
2019-04-05T17:08:52.611Z,19.23
2019-04-05T17:11:21.102Z,17.73
2019-04-05T17:13:49.538Z,18.27
2019-04-05T17:16:17.998Z,18.50
2019-04-05T17:18:46.726Z,19.57
2019-04-05T17:21:15.148Z,19.40
2019-04-05T17:23:43.575Z,18.73
2019-04-05T17:26:12.218Z,19.70
2019-04-05T17:28:41.133Z,19.50
2019-04-05T17:31:09.620Z,19.50
2019-04-05T17:33:38.118Z,19.65
2019-04-05T17:36:06.592Z,22.52
2019-04-05T17:38:35.058Z,22.02
2019-04-05T17:41:03.956Z,20.02
2019-04-05T17:43:32.442Z,21.07
2019-04-05T17:46:00.867Z,21.12
2019-04-05T17:48:29.350Z,21.82
2019-04-05T17:50:57.825Z,21.45
2019-04-05T17:53:26.258Z,21.65
2019-04-05T17:55:54.888Z,22.00
2019-04-05T17:58:26.361Z,21.00
2019-04-05T18:00:54.893Z,20.70
2019-04-05T18:03:23.508Z,20.15
2019-04-05T18:05:51.938Z,20.12
2019-04-05T18:08:20.359Z,20.08
2019-04-05T18:10:48.852Z,21.12
2019-04-05T18:13:17.313Z,20.70
2019-04-05T18:15:52.361Z,19.98
2019-04-05T18:18:16.210Z,20.72
2019-04-05T18:20:44.630Z,21.10
2019-04-05T18:23:24.148Z,20.48
2019-04-05T18:25:43.329Z,21.47
2019-04-05T18:28:11.795Z,19.70
2019-04-05T18:30:40.375Z,20.30
2019-04-05T18:33:08.927Z,20.25
2019-04-05T18:35:37.387Z,19.92
2019-04-05T18:38:05.893Z,19.60
2019-04-05T18:40:40.370Z,19.82
2019-04-05T18:43:04.933Z,19.70
2019-04-05T18:45:34.022Z,19.07
2019-04-05T18:48:02.498Z,19.07
2019-04-05T18:50:30.985Z,19.90
2019-04-05T18:52:59.464Z,19.67
2019-04-05T18:55:28.088Z,19.25
2019-04-05T18:57:56.507Z,17.77
2019-04-05T19:00:24.964Z,20.20
2019-04-05T19:02:53.489Z,20.68
2019-04-05T19:05:21.917Z,19.90
2019-04-05T19:07:50.342Z,20.25
2019-04-05T19:10:18.789Z,19.17
2019-04-05T19:12:47.378Z,18.50
2019-04-05T19:15:15.960Z,18.55
2019-04-05T19:17:44.815Z,18.67
2019-04-05T19:20:13.538Z,20.23
2019-04-05T19:22:41.970Z,18.42
2019-04-05T19:25:10.697Z,21.23
2019-04-05T19:27:39.173Z,22.07
2019-04-05T19:50:11.817Z,20.55
2019-04-05T19:52:40.282Z,19.02
2019-04-05T19:55:09.644Z,19.53
2019-04-05T19:57:38.160Z,19.27
2019-04-05T20:00:07.931Z,20.48
2019-04-05T20:02:36.630Z,19.62
2019-04-05T20:05:07.256Z,19.65
2019-04-05T20:07:38.263Z,18.92
2019-04-05T20:10:07.327Z,19.50
2019-04-05T20:12:35.929Z,19.25
2019-04-05T20:15:07.090Z,19.30
2019-04-05T20:17:35.820Z,18.83
2019-04-05T20:20:06.486Z,18.40
2019-04-05T20:22:34.963Z,19.23
2019-04-05T20:25:05.558Z,20.30
2019-04-05T20:27:34.024Z,18.92
2019-04-05T20:30:03.584Z,19.43
2019-04-05T20:32:32.175Z,20.20
2019-04-05T20:35:00.850Z,19.70
2019-04-05T20:37:29.452Z,19.20
2019-04-05T20:39:57.943Z,19.10
2019-04-05T20:42:26.368Z,18.27
2019-04-05T20:44:54.782Z,18.05
2019-04-05T20:47:23.469Z,19.10
2019-04-05T20:49:51.926Z,19.43
2019-04-05T20:52:20.355Z,19.03
2019-04-05T20:54:48.836Z,18.20
2019-04-05T20:57:17.250Z,19.60
2019-04-05T20:59:45.682Z,19.67
2019-04-05T21:02:14.380Z,19.77
2019-04-05T21:04:42.795Z,18.37
2019-04-05T21:07:11.257Z,20.00
2019-04-05T21:09:39.708Z,18.87
2019-04-05T21:12:08.225Z,18.10
2019-04-05T21:14:36.650Z,18.73
2019-04-05T21:17:05.168Z,18.70
2019-04-05T21:19:33.688Z,18.57
2019-04-05T21:22:02.180Z,18.67
2019-04-05T21:24:36.177Z,17.77
2019-04-05T21:27:00.923Z,18.98
2019-04-05T21:29:30.193Z,19.30
2019-04-05T21:31:58.763Z,18.90
2019-04-05T21:34:27.185Z,17.87
2019-04-05T21:36:55.644Z,18.53
2019-04-05T21:39:24.279Z,19.27
2019-04-05T21:41:52.701Z,18.30
2019-04-05T21:44:21.149Z,18.23
2019-04-05T21:46:50.110Z,18.03
2019-04-05T21:49:18.581Z,18.95
2019-04-05T21:51:46.999Z,19.10
2019-04-05T21:54:21.584Z,19.10
2019-04-05T21:56:49.990Z,18.82
2019-04-05T21:59:18.445Z,18.57
2019-04-05T22:01:47.622Z,17.98
2019-04-05T22:04:16.061Z,17.87
2019-04-05T22:06:44.534Z,17.52
2019-04-05T22:09:13.071Z,18.37
2019-04-05T22:11:41.504Z,18.10
2019-04-05T22:14:09.970Z,17.95
2019-04-05T22:16:38.504Z,18.62
2019-04-05T22:19:06.930Z,19.80
2019-04-05T22:21:35.527Z,19.30
2019-04-05T22:24:04.312Z,19.03
2019-04-05T22:26:32.764Z,18.70
2019-04-05T22:29:01.472Z,18.13
2019-04-05T22:31:33.013Z,19.07
2019-04-05T22:34:01.478Z,18.15
2019-04-05T22:36:29.889Z,18.10
2019-04-05T22:41:39.782Z,18.05
2019-04-05T22:44:08.252Z,19.45
2019-04-05T22:46:36.733Z,20.05
2019-04-05T22:51:43.843Z,19.02
2019-04-05T22:54:12.266Z,18.23
2019-04-05T22:56:40.685Z,20.05
2019-04-05T22:59:09.301Z,19.52
2019-04-05T23:01:37.733Z,18.33
2019-04-05T23:04:06.236Z,19.87
2019-04-05T23:06:34.872Z,19.03
2019-04-05T23:09:05.044Z,19.77
2019-04-05T23:11:33.470Z,19.07
2019-04-05T23:14:02.076Z,21.23
2019-04-05T23:16:31.158Z,19.07
2019-04-05T23:18:59.620Z,20.40
2019-04-05T23:21:28.221Z,20.77
2019-04-05T23:23:56.986Z,19.37
2019-04-05T23:26:26.260Z,19.50
2019-04-05T23:28:55.266Z,18.60
2019-04-05T23:31:24.032Z,20.13
2019-04-05T23:33:52.610Z,20.33
2019-04-05T23:36:21.199Z,18.57
2019-04-05T23:38:49.714Z,20.00
2019-04-05T23:41:18.134Z,19.40
2019-04-05T23:43:46.698Z,19.37
2019-04-05T23:46:15.200Z,19.07
2019-04-05T23:48:43.614Z,21.07
2019-04-05T23:51:12.154Z,20.37
2019-04-05T23:53:40.965Z,19.20
2019-04-05T23:56:12.185Z,20.83
2019-04-05T23:58:40.737Z,20.13
